sensor_id;sensor_type;location;lat;lon;timestamp;temperature;humidity
34434;DHT22;34290;48.562;13.384;2023-03-15T00:01:03;4.60;99.90
34434;DHT22;34290;48.562;13.384;2023-03-15T00:03:30;4.60;99.90
34434;DHT22;34290;48.562;13.384;2023-03-15T00:10:58;5.20;99.90
34434;DHT22;34290;48.562;13.384;2023-03-15T00:15:56;4.70;99.90
34434;DHT22;34290;48.562;13.384;2023-03-15T00:18:25;4.70;99.90
34434;DHT22;34290;48.562;13.384;2023-03-15T00:20:53;4.60;99.90
34434;DHT22;34290;48.562;13.384;2023-03-15T00:23:20;4.60;99.90
34434;DHT22;34290;48.562;13.384;2023-03-15T00:25:48;4.70;99.90
34434;DHT22;34290;48.562;13.384;2023-03-15T00:28:16;4.70;99.90
34434;DHT22;34290;48.562;13.384;2023-03-15T00:30:44;4.60;99.90
34434;DHT22;34290;48.562;13.384;2023-03-15T00:33:12;4.70;99.90
34434;DHT22;34290;48.562;13.384;2023-03-15T00:35:42;4.70;99.90
34434;DHT22;34290;48.562;13.384;2023-03-15T00:38:10;4.70;99.90
34434;DHT22;34290;48.562;13.384;2023-03-15T00:40:38;4.70;99.90
34434;DHT22;34290;48.562;13.384;2023-03-15T00:45:32;4.60;99.90
34434;DHT22;34290;48.562;13.384;2023-03-15T00:52:55;4.50;99.90
34434;DHT22;34290;48.562;13.384;2023-03-15T00:55:22;4.50;99.90
34434;DHT22;34290;48.562;13.384;2023-03-15T00:57:49;4.50;99.90
34434;DHT22;34290;48.562;13.384;2023-03-15T01:00:18;4.40;99.90
34434;DHT22;34290;48.562;13.384;2023-03-15T01:02:49;4.40;99.90
34434;DHT22;34290;48.562;13.384;2023-03-15T01:05:16;4.50;99.90
34434;DHT22;34290;48.562;13.384;2023-03-15T01:10:13;4.50;99.90
34434;DHT22;34290;48.562;13.384;2023-03-15T01:12:41;4.50;99.90
34434;DHT22;34290;48.562;13.384;2023-03-15T01:15:10;4.50;99.90
34434;DHT22;34290;48.562;13.384;2023-03-15T01:17:37;4.40;99.90
34434;DHT22;34290;48.562;13.384;2023-03-15T01:20:05;4.40;99.90
34434;DHT22;34290;48.562;13.384;2023-03-15T01:22:32;4.40;99.90
34434;DHT22;34290;48.562;13.384;2023-03-15T01:24:59;4.30;99.90
34434;DHT22;34290;48.562;13.384;2023-03-15T01:27:28;4.30;99.90
34434;DHT22;34290;48.562;13.384;2023-03-15T01:29:55;4.30;99.90
34434;DHT22;34290;48.562;13.384;2023-03-15T01:32:22;4.20;99.90
34434;DHT22;34290;48.562;13.384;2023-03-15T01:39:43;4.20;99.90
34434;DHT22;34290;48.562;13.384;2023-03-15T01:44:51;4.10;99.90
34434;DHT22;34290;48.562;13.384;2023-03-15T01:47:19;4.00;99.90
34434;DHT22;34290;48.562;13.384;2023-03-15T01:49:50;4.00;99.90
34434;DHT22;34290;48.562;13.384;2023-03-15T01:52:20;4.00;99.90
34434;DHT22;34290;48.562;13.384;2023-03-15T01:54:51;4.00;99.90
34434;DHT22;34290;48.562;13.384;2023-03-15T01:57:22;4.00;99.90
34434;DHT22;34290;48.562;13.384;2023-03-15T01:59:56;3.90;99.90
34434;DHT22;34290;48.562;13.384;2023-03-15T02:02:24;3.80;99.90
34434;DHT22;34290;48.562;13.384;2023-03-15T02:04:55;3.80;99.90
34434;DHT22;34290;48.562;13.384;2023-03-15T02:07:27;3.80;99.90
34434;DHT22;34290;48.562;13.384;2023-03-15T02:12:37;3.70;99.90
34434;DHT22;34290;48.562;13.384;2023-03-15T02:15:08;3.80;99.90
34434;DHT22;34290;48.562;13.384;2023-03-15T02:20:15;3.60;99.90
34434;DHT22;34290;48.562;13.384;2023-03-15T02:22:49;3.60;99.90
34434;DHT22;34290;48.562;13.384;2023-03-15T02:25:24;3.60;99.90
34434;DHT22;34290;48.562;13.384;2023-03-15T02:27:55;3.70;99.90
34434;DHT22;34290;48.562;13.384;2023-03-15T02:30:23;3.80;99.90
34434;DHT22;34290;48.562;13.384;2023-03-15T02:32:50;3.80;99.90
34434;DHT22;34290;48.562;13.384;2023-03-15T02:35:24;3.90;99.90
34434;DHT22;34290;48.562;13.384;2023-03-15T02:37:51;3.90;99.90
34434;DHT22;34290;48.562;13.384;2023-03-15T02:40:20;3.90;99.90
34434;DHT22;34290;48.562;13.384;2023-03-15T02:42:50;4.00;99.90
34434;DHT22;34290;48.562;13.384;2023-03-15T02:45:21;4.10;99.90
34434;DHT22;34290;48.562;13.384;2023-03-15T02:47:49;4.20;99.90
34434;DHT22;34290;48.562;13.384;2023-03-15T02:52:44;4.20;99.90
34434;DHT22;34290;48.562;13.384;2023-03-15T02:57:38;4.10;99.90
34434;DHT22;34290;48.562;13.384;2023-03-15T03:00:07;4.10;99.90
34434;DHT22;34290;48.562;13.384;2023-03-15T03:02:41;4.10;99.90
34434;DHT22;34290;48.562;13.384;2023-03-15T03:05:08;4.00;99.90
34434;DHT22;34290;48.562;13.384;2023-03-15T03:10:03;4.10;99.90
34434;DHT22;34290;48.562;13.384;2023-03-15T03:12:30;4.00;99.90
34434;DHT22;34290;48.562;13.384;2023-03-15T03:19:56;4.00;99.90
34434;DHT22;34290;48.562;13.384;2023-03-15T03:22:23;4.00;99.90
34434;DHT22;34290;48.562;13.384;2023-03-15T03:27:17;4.00;99.90
34434;DHT22;34290;48.562;13.384;2023-03-15T03:29:44;3.90;99.90
34434;DHT22;34290;48.562;13.384;2023-03-15T03:32:11;4.00;99.90
34434;DHT22;34290;48.562;13.384;2023-03-15T03:34:38;4.00;99.90
34434;DHT22;34290;48.562;13.384;2023-03-15T03:37:07;3.90;99.90
34434;DHT22;34290;48.562;13.384;2023-03-15T03:39:34;3.90;99.90
34434;DHT22;34290;48.562;13.384;2023-03-15T03:42:01;3.90;99.90
34434;DHT22;34290;48.562;13.384;2023-03-15T03:44:28;3.90;99.90
34434;DHT22;34290;48.562;13.384;2023-03-15T03:46:55;3.90;99.90
34434;DHT22;34290;48.562;13.384;2023-03-15T03:49:22;3.80;99.90
34434;DHT22;34290;48.562;13.384;2023-03-15T03:54:17;3.80;99.90
34434;DHT22;34290;48.562;13.384;2023-03-15T03:56:46;3.80;99.90
34434;DHT22;34290;48.562;13.384;2023-03-15T04:01:40;3.80;99.90
34434;DHT22;34290;48.562;13.384;2023-03-15T04:04:07;3.80;99.90
34434;DHT22;34290;48.562;13.384;2023-03-15T04:06:38;3.80;99.90
34434;DHT22;34290;48.562;13.384;2023-03-15T04:09:10;3.70;99.90
34434;DHT22;34290;48.562;13.384;2023-03-15T04:11:39;3.60;99.90
34434;DHT22;34290;48.562;13.384;2023-03-15T04:14:09;3.60;99.90
34434;DHT22;34290;48.562;13.384;2023-03-15T04:16:36;3.50;99.90
34434;DHT22;34290;48.562;13.384;2023-03-15T04:21:31;3.60;99.90
34434;DHT22;34290;48.562;13.384;2023-03-15T04:23:58;3.50;99.90
34434;DHT22;34290;48.562;13.384;2023-03-15T04:28:55;3.50;99.90
34434;DHT22;34290;48.562;13.384;2023-03-15T04:31:23;4.10;99.90
34434;DHT22;34290;48.562;13.384;2023-03-15T04:36:19;3.50;99.90
34434;DHT22;34290;48.562;13.384;2023-03-15T04:41:14;3.40;99.90
34434;DHT22;34290;48.562;13.384;2023-03-15T04:43:41;3.40;99.90
34434;DHT22;34290;48.562;13.384;2023-03-15T04:46:09;3.30;99.90
34434;DHT22;34290;48.562;13.384;2023-03-15T04:51:04;3.10;99.90
34434;DHT22;34290;48.562;13.384;2023-03-15T04:53:31;3.10;99.90
34434;DHT22;34290;48.562;13.384;2023-03-15T04:55:58;3.00;99.90
34434;DHT22;34290;48.562;13.384;2023-03-15T05:03:21;2.80;99.90
34434;DHT22;34290;48.562;13.384;2023-03-15T05:05:48;2.70;99.90
34434;DHT22;34290;48.562;13.384;2023-03-15T05:13:10;2.50;99.90
34434;DHT22;34290;48.562;13.384;2023-03-15T05:23:00;2.30;99.90
34434;DHT22;34290;48.562;13.384;2023-03-15T05:30:23;2.40;99.90
34434;DHT22;34290;48.562;13.384;2023-03-15T05:40:13;2.20;99.90
34434;DHT22;34290;48.562;13.384;2023-03-15T05:47:35;2.20;99.90
34434;DHT22;34290;48.562;13.384;2023-03-15T05:54:58;2.00;99.90
34434;DHT22;34290;48.562;13.384;2023-03-15T05:57:25;1.90;99.90
34434;DHT22;34290;48.562;13.384;2023-03-15T06:02:20;1.90;99.90
34434;DHT22;34290;48.562;13.384;2023-03-15T06:07:14;1.70;99.90
34434;DHT22;34290;48.562;13.384;2023-03-15T06:12:10;1.60;99.90
34434;DHT22;34290;48.562;13.384;2023-03-15T06:17:04;1.60;99.90
34434;DHT22;34290;48.562;13.384;2023-03-15T06:21:58;1.70;99.90
34434;DHT22;34290;48.562;13.384;2023-03-15T06:26:52;1.80;99.90
34434;DHT22;34290;48.562;13.384;2023-03-15T06:29:22;1.70;99.90
34434;DHT22;34290;48.562;13.384;2023-03-15T06:31:49;1.70;99.90
34434;DHT22;34290;48.562;13.384;2023-03-15T06:36:45;1.70;99.90
34434;DHT22;34290;48.562;13.384;2023-03-15T06:41:41;1.70;99.90
34434;DHT22;34290;48.562;13.384;2023-03-15T06:46:37;1.80;99.90
34434;DHT22;34290;48.562;13.384;2023-03-15T06:51:31;2.20;99.90
34434;DHT22;34290;48.562;13.384;2023-03-15T06:56:25;6.30;99.90
34434;DHT22;34290;48.562;13.384;2023-03-15T07:01:19;8.00;99.90
34434;DHT22;34290;48.562;13.384;2023-03-15T07:03:48;9.10;99.90
34434;DHT22;34290;48.562;13.384;2023-03-15T07:11:09;11.30;99.90
34434;DHT22;34290;48.562;13.384;2023-03-15T07:13:36;10.70;99.90
34434;DHT22;34290;48.562;13.384;2023-03-15T07:16:04;10.10;99.90
34434;DHT22;34290;48.562;13.384;2023-03-15T07:21:04;11.30;99.90
34434;DHT22;34290;48.562;13.384;2023-03-15T07:23:32;11.40;99.90
34434;DHT22;34290;48.562;13.384;2023-03-15T07:25:59;11.30;99.20
34434;DHT22;34290;48.562;13.384;2023-03-15T07:28:27;10.20;99.90
34434;DHT22;34290;48.562;13.384;2023-03-15T07:30:55;8.80;99.90
34434;DHT22;34290;48.562;13.384;2023-03-15T07:33:23;7.90;99.90
34434;DHT22;34290;48.562;13.384;2023-03-15T07:35:51;8.30;99.90
34434;DHT22;34290;48.562;13.384;2023-03-15T07:38:20;8.50;99.90
34434;DHT22;34290;48.562;13.384;2023-03-15T07:40:48;8.80;99.90
34434;DHT22;34290;48.562;13.384;2023-03-15T07:43:15;9.10;99.90
34434;DHT22;34290;48.562;13.384;2023-03-15T07:48:09;10.00;99.90
34434;DHT22;34290;48.562;13.384;2023-03-15T07:50:36;11.50;99.70
34434;DHT22;34290;48.562;13.384;2023-03-15T07:53:04;11.60;97.70
34434;DHT22;34290;48.562;13.384;2023-03-15T07:55:33;10.40;97.90
34434;DHT22;34290;48.562;13.384;2023-03-15T08:00:28;8.60;99.90
34434;DHT22;34290;48.562;13.384;2023-03-15T08:02:56;7.80;99.90
34434;DHT22;34290;48.562;13.384;2023-03-15T08:05:23;7.90;99.90
34434;DHT22;34290;48.562;13.384;2023-03-15T08:07:50;9.20;99.90
34434;DHT22;34290;48.562;13.384;2023-03-15T08:10:18;9.70;99.80
34434;DHT22;34290;48.562;13.384;2023-03-15T08:12:46;10.40;99.90
34434;DHT22;34290;48.562;13.384;2023-03-15T08:15:14;11.60;98.50
34434;DHT22;34290;48.562;13.384;2023-03-15T08:17:41;12.70;96.80
34434;DHT22;34290;48.562;13.384;2023-03-15T08:20:10;13.50;94.80
34434;DHT22;34290;48.562;13.384;2023-03-15T08:22:39;14.50;94.00
34434;DHT22;34290;48.562;13.384;2023-03-15T08:25:11;13.60;93.30
34434;DHT22;34290;48.562;13.384;2023-03-15T08:27:38;12.40;94.10
34434;DHT22;34290;48.562;13.384;2023-03-15T08:30:09;10.80;94.80
34434;DHT22;34290;48.562;13.384;2023-03-15T08:32:37;10.00;96.60
34434;DHT22;34290;48.562;13.384;2023-03-15T08:35:05;9.50;97.70
34434;DHT22;34290;48.562;13.384;2023-03-15T08:37:32;8.90;98.40
34434;DHT22;34290;48.562;13.384;2023-03-15T08:39:59;8.30;99.40
34434;DHT22;34290;48.562;13.384;2023-03-15T08:42:32;8.30;99.90
34434;DHT22;34290;48.562;13.384;2023-03-15T08:44:58;9.40;99.90
34434;DHT22;34290;48.562;13.384;2023-03-15T08:47:28;9.80;98.10
34434;DHT22;34290;48.562;13.384;2023-03-15T08:49:55;9.60;98.80
34434;DHT22;34290;48.562;13.384;2023-03-15T08:54:49;11.90;95.90
34434;DHT22;34290;48.562;13.384;2023-03-15T08:57:16;12.00;94.50
34434;DHT22;34290;48.562;13.384;2023-03-15T08:59:43;10.70;95.00
34434;DHT22;34290;48.562;13.384;2023-03-15T09:02:10;9.70;96.20
34434;DHT22;34290;48.562;13.384;2023-03-15T09:04:39;8.90;97.40
34434;DHT22;34290;48.562;13.384;2023-03-15T09:07:06;8.20;98.30
34434;DHT22;34290;48.562;13.384;2023-03-15T09:12:00;7.20;99.50
34434;DHT22;34290;48.562;13.384;2023-03-15T09:16:55;7.20;99.90
34434;DHT22;34290;48.562;13.384;2023-03-15T09:19:22;7.70;99.60
34434;DHT22;34290;48.562;13.384;2023-03-15T09:21:51;7.60;99.10
34434;DHT22;34290;48.562;13.384;2023-03-15T09:24:18;7.10;99.80
34434;DHT22;34290;48.562;13.384;2023-03-15T09:26:45;6.90;99.90
34434;DHT22;34290;48.562;13.384;2023-03-15T09:31:39;6.60;99.90
34434;DHT22;34290;48.562;13.384;2023-03-15T09:39:02;7.90;99.90
34434;DHT22;34290;48.562;13.384;2023-03-15T09:41:41;9.60;97.50
34434;DHT22;34290;48.562;13.384;2023-03-15T09:46:48;8.90;96.30
34434;DHT22;34290;48.562;13.384;2023-03-15T09:49:23;8.20;97.30
34434;DHT22;34290;48.562;13.384;2023-03-15T09:51:56;8.10;97.50
34434;DHT22;34290;48.562;13.384;2023-03-15T09:54:28;8.80;95.80
34434;DHT22;34290;48.562;13.384;2023-03-15T09:59:31;9.10;94.80
34434;DHT22;34290;48.562;13.384;2023-03-15T10:02:03;9.90;95.90
34434;DHT22;34290;48.562;13.384;2023-03-15T10:04:38;10.70;93.50
34434;DHT22;34290;48.562;13.384;2023-03-15T10:07:11;10.10;93.70
34434;DHT22;34290;48.562;13.384;2023-03-15T10:09:40;9.20;95.00
34434;DHT22;34290;48.562;13.384;2023-03-15T10:12:10;8.10;95.50
34434;DHT22;34290;48.562;13.384;2023-03-15T10:14:58;7.30;96.30
34434;DHT22;34290;48.562;13.384;2023-03-15T10:17:36;7.30;96.20
34434;DHT22;34290;48.562;13.384;2023-03-15T10:20:12;8.30;97.50
34434;DHT22;34290;48.562;13.384;2023-03-15T10:22:46;9.40;96.70
34434;DHT22;34290;48.562;13.384;2023-03-15T10:25:20;10.00;92.40
34434;DHT22;34290;48.562;13.384;2023-03-15T10:27:53;9.20;91.40
34434;DHT22;34290;48.562;13.384;2023-03-15T10:30:23;9.50;93.20
34434;DHT22;34290;48.562;13.384;2023-03-15T10:32:53;10.70;91.70
34434;DHT22;34290;48.562;13.384;2023-03-15T10:35:21;10.20;90.80
34434;DHT22;34290;48.562;13.384;2023-03-15T10:37:48;9.10;92.80
34434;DHT22;34290;48.562;13.384;2023-03-15T10:40:38;8.20;93.20
34434;DHT22;34290;48.562;13.384;2023-03-15T10:43:12;8.10;94.60
34434;DHT22;34290;48.562;13.384;2023-03-15T10:45:39;8.60;93.90
34434;DHT22;34290;48.562;13.384;2023-03-15T10:48:07;9.40;92.60
34434;DHT22;34290;48.562;13.384;2023-03-15T10:50:37;10.00;89.60
34434;DHT22;34290;48.562;13.384;2023-03-15T10:53:09;9.70;90.50
34434;DHT22;34290;48.562;13.384;2023-03-15T10:55:43;9.20;91.00
34434;DHT22;34290;48.562;13.384;2023-03-15T10:58:20;8.80;91.50
34434;DHT22;34290;48.562;13.384;2023-03-15T11:00:50;9.70;91.70
34434;DHT22;34290;48.562;13.384;2023-03-15T11:03:19;9.90;90.90
34434;DHT22;34290;48.562;13.384;2023-03-15T11:05:48;10.70;91.60
34434;DHT22;34290;48.562;13.384;2023-03-15T11:08:17;10.50;89.50
34434;DHT22;34290;48.562;13.384;2023-03-15T11:10:54;9.60;90.20
34434;DHT22;34290;48.562;13.384;2023-03-15T11:13:23;9.20;91.90
34434;DHT22;34290;48.562;13.384;2023-03-15T11:15:59;10.40;91.40
34434;DHT22;34290;48.562;13.384;2023-03-15T11:18:31;11.50;89.60
34434;DHT22;34290;48.562;13.384;2023-03-15T11:21:01;10.80;88.50
34434;DHT22;34290;48.562;13.384;2023-03-15T11:23:33;10.20;90.10
34434;DHT22;34290;48.562;13.384;2023-03-15T11:26:03;9.50;91.10
34434;DHT22;34290;48.562;13.384;2023-03-15T11:28:33;8.90;91.80
34434;DHT22;34290;48.562;13.384;2023-03-15T11:31:03;8.90;92.50
34434;DHT22;34290;48.562;13.384;2023-03-15T11:33:40;8.50;91.70
34434;DHT22;34290;48.562;13.384;2023-03-15T11:36:13;7.70;92.80
34434;DHT22;34290;48.562;13.384;2023-03-15T11:38:42;7.20;93.00
34434;DHT22;34290;48.562;13.384;2023-03-15T11:41:24;7.30;93.50
34434;DHT22;34290;48.562;13.384;2023-03-15T11:44:02;7.20;94.30
34434;DHT22;34290;48.562;13.384;2023-03-15T11:46:33;7.10;93.90
34434;DHT22;34290;48.562;13.384;2023-03-15T11:49:09;7.70;94.00
34434;DHT22;34290;48.562;13.384;2023-03-15T11:51:38;7.80;92.80
34434;DHT22;34290;48.562;13.384;2023-03-15T11:54:12;7.50;92.80
34434;DHT22;34290;48.562;13.384;2023-03-15T11:56:50;7.20;93.30
34434;DHT22;34290;48.562;13.384;2023-03-15T11:59:19;7.10;93.00
34434;DHT22;34290;48.562;13.384;2023-03-15T12:01:53;7.80;93.80
34434;DHT22;34290;48.562;13.384;2023-03-15T12:04:48;8.30;93.00
34434;DHT22;34290;48.562;13.384;2023-03-15T12:07:35;8.20;93.10
34434;DHT22;34290;48.562;13.384;2023-03-15T12:10:31;7.90;92.10
34434;DHT22;34290;48.562;13.384;2023-03-15T12:13:06;7.60;92.60
34434;DHT22;34290;48.562;13.384;2023-03-15T12:15:57;7.80;93.30
34434;DHT22;34290;48.562;13.384;2023-03-15T12:18:29;7.80;93.50
34434;DHT22;34290;48.562;13.384;2023-03-15T12:21:09;7.70;93.10
34434;DHT22;34290;48.562;13.384;2023-03-15T12:23:40;7.60;92.50
34434;DHT22;34290;48.562;13.384;2023-03-15T12:26:15;7.50;93.20
34434;DHT22;34290;48.562;13.384;2023-03-15T12:28:52;7.80;93.70
34434;DHT22;34290;48.562;13.384;2023-03-15T12:31:43;8.40;94.00
34434;DHT22;34290;48.562;13.384;2023-03-15T12:36:44;8.00;92.60
34434;DHT22;34290;48.562;13.384;2023-03-15T12:39:28;8.10;93.90
34434;DHT22;34290;48.562;13.384;2023-03-15T12:42:01;8.10;93.20
34434;DHT22;34290;48.562;13.384;2023-03-15T12:44:41;8.10;92.30
34434;DHT22;34290;48.562;13.384;2023-03-15T12:47:09;7.90;92.50
34434;DHT22;34290;48.562;13.384;2023-03-15T12:49:40;7.80;92.80
34434;DHT22;34290;48.562;13.384;2023-03-15T12:52:35;7.60;93.20
34434;DHT22;34290;48.562;13.384;2023-03-15T12:55:11;7.40;92.60
34434;DHT22;34290;48.562;13.384;2023-03-15T12:57:46;7.50;92.70
34434;DHT22;34290;48.562;13.384;2023-03-15T13:00:16;7.40;92.40
34434;DHT22;34290;48.562;13.384;2023-03-15T13:02:48;7.70;93.40
34434;DHT22;34290;48.562;13.384;2023-03-15T13:05:19;8.30;94.50
34434;DHT22;34290;48.562;13.384;2023-03-15T13:07:55;8.50;91.60
34434;DHT22;34290;48.562;13.384;2023-03-15T13:13:32;9.20;91.50
34434;DHT22;34290;48.562;13.384;2023-03-15T13:16:20;9.40;91.60
34434;DHT22;34290;48.562;13.384;2023-03-15T13:18:57;9.40;89.80
34434;DHT22;34290;48.562;13.384;2023-03-15T13:21:29;9.30;89.30
34434;DHT22;34290;48.562;13.384;2023-03-15T13:23:58;9.30;90.50
34434;DHT22;34290;48.562;13.384;2023-03-15T13:26:45;9.40;88.70
34434;DHT22;34290;48.562;13.384;2023-03-15T13:29:15;9.30;87.70
34434;DHT22;34290;48.562;13.384;2023-03-15T13:31:59;9.40;89.20
34434;DHT22;34290;48.562;13.384;2023-03-15T13:34:28;9.60;89.70
34434;DHT22;34290;48.562;13.384;2023-03-15T13:36:58;9.90;90.20
34434;DHT22;34290;48.562;13.384;2023-03-15T13:39:29;9.80;86.70
34434;DHT22;34290;48.562;13.384;2023-03-15T13:41:58;9.80;88.30
34434;DHT22;34290;48.562;13.384;2023-03-15T13:44:26;9.80;90.60
34434;DHT22;34290;48.562;13.384;2023-03-15T13:46:56;9.40;90.70
34434;DHT22;34290;48.562;13.384;2023-03-15T13:49:24;9.10;91.40
34434;DHT22;34290;48.562;13.384;2023-03-15T13:51:55;8.60;91.70
34434;DHT22;34290;48.562;13.384;2023-03-15T13:54:25;8.40;92.50
34434;DHT22;34290;48.562;13.384;2023-03-15T13:56:58;8.20;91.80
34434;DHT22;34290;48.562;13.384;2023-03-15T13:59:31;7.80;91.90
34434;DHT22;34290;48.562;13.384;2023-03-15T14:02:00;7.70;92.10
34434;DHT22;34290;48.562;13.384;2023-03-15T14:04:33;7.40;92.00
34434;DHT22;34290;48.562;13.384;2023-03-15T14:07:14;7.20;91.70
34434;DHT22;34290;48.562;13.384;2023-03-15T14:09:44;7.20;92.20
34434;DHT22;34290;48.562;13.384;2023-03-15T14:12:17;7.10;92.30
34434;DHT22;34290;48.562;13.384;2023-03-15T14:14:49;7.00;91.90
34434;DHT22;34290;48.562;13.384;2023-03-15T14:17:24;6.90;92.40
34434;DHT22;34290;48.562;13.384;2023-03-15T14:19:53;6.80;92.90
34434;DHT22;34290;48.562;13.384;2023-03-15T14:22:21;6.70;93.10
34434;DHT22;34290;48.562;13.384;2023-03-15T14:24:50;6.60;93.40
34434;DHT22;34290;48.562;13.384;2023-03-15T14:27:19;6.60;94.00
34434;DHT22;34290;48.562;13.384;2023-03-15T14:29:49;6.50;93.80
34434;DHT22;34290;48.562;13.384;2023-03-15T14:32:29;6.60;94.10
34434;DHT22;34290;48.562;13.384;2023-03-15T14:35:00;6.60;93.40
34434;DHT22;34290;48.562;13.384;2023-03-15T14:37:31;6.60;94.00
34434;DHT22;34290;48.562;13.384;2023-03-15T14:40:05;6.70;94.00
34434;DHT22;34290;48.562;13.384;2023-03-15T14:42:34;6.90;93.60
34434;DHT22;34290;48.562;13.384;2023-03-15T14:45:01;7.00;93.60
34434;DHT22;34290;48.562;13.384;2023-03-15T14:47:30;6.90;93.40
34434;DHT22;34290;48.562;13.384;2023-03-15T14:49:57;7.00;93.50
34434;DHT22;34290;48.562;13.384;2023-03-15T14:52:25;7.00;93.30
34434;DHT22;34290;48.562;13.384;2023-03-15T14:54:52;7.00;92.90
34434;DHT22;34290;48.562;13.384;2023-03-15T14:59:48;6.80;92.50
34434;DHT22;34290;48.562;13.384;2023-03-15T15:02:16;6.80;93.70
34434;DHT22;34290;48.562;13.384;2023-03-15T15:04:45;6.70;93.70
34434;DHT22;34290;48.562;13.384;2023-03-15T15:07:13;6.40;94.20
34434;DHT22;34290;48.562;13.384;2023-03-15T15:09:45;6.20;95.50
34434;DHT22;34290;48.562;13.384;2023-03-15T15:12:13;6.00;96.80
34434;DHT22;34290;48.562;13.384;2023-03-15T15:14:40;5.90;98.20
34434;DHT22;34290;48.562;13.384;2023-03-15T15:17:08;5.80;98.80
34434;DHT22;34290;48.562;13.384;2023-03-15T15:19:36;5.80;98.80
34434;DHT22;34290;48.562;13.384;2023-03-15T15:22:04;5.70;99.30
34434;DHT22;34290;48.562;13.384;2023-03-15T15:24:31;5.70;99.60
34434;DHT22;34290;48.562;13.384;2023-03-15T15:26:58;5.50;99.30
34434;DHT22;34290;48.562;13.384;2023-03-15T15:29:25;5.40;99.50
34434;DHT22;34290;48.562;13.384;2023-03-15T15:31:52;5.20;99.90
34434;DHT22;34290;48.562;13.384;2023-03-15T15:36:46;5.10;99.90
34434;DHT22;34290;48.562;13.384;2023-03-15T15:39:20;5.10;99.90
34434;DHT22;34290;48.562;13.384;2023-03-15T15:44:16;5.30;99.90
34434;DHT22;34290;48.562;13.384;2023-03-15T15:49:11;5.30;99.90
34434;DHT22;34290;48.562;13.384;2023-03-15T15:51:39;5.40;99.90
34434;DHT22;34290;48.562;13.384;2023-03-15T15:54:13;5.30;99.70
34434;DHT22;34290;48.562;13.384;2023-03-15T15:59:14;5.30;99.90
34434;DHT22;34290;48.562;13.384;2023-03-15T16:04:09;5.10;99.90
34434;DHT22;34290;48.562;13.384;2023-03-15T16:09:06;5.00;99.90
34434;DHT22;34290;48.562;13.384;2023-03-15T16:11:33;4.80;99.90
34434;DHT22;34290;48.562;13.384;2023-03-15T16:16:29;4.40;99.90
34434;DHT22;34290;48.562;13.384;2023-03-15T16:21:28;3.80;99.90
34434;DHT22;34290;48.562;13.384;2023-03-15T16:24:02;3.60;99.90
34434;DHT22;34290;48.562;13.384;2023-03-15T16:26:30;3.50;99.90
34434;DHT22;34290;48.562;13.384;2023-03-15T16:31:25;3.50;99.90
34434;DHT22;34290;48.562;13.384;2023-03-15T16:41:17;3.50;99.90
34434;DHT22;34290;48.562;13.384;2023-03-15T16:43:44;3.40;99.90
34434;DHT22;34290;48.562;13.384;2023-03-15T16:46:12;3.40;99.90
34434;DHT22;34290;48.562;13.384;2023-03-15T16:51:12;3.40;99.90
34434;DHT22;34290;48.562;13.384;2023-03-15T16:58:37;3.30;99.90
34434;DHT22;34290;48.562;13.384;2023-03-15T17:01:04;3.30;99.90
34434;DHT22;34290;48.562;13.384;2023-03-15T17:03:32;3.30;99.90
34434;DHT22;34290;48.562;13.384;2023-03-15T17:06:01;3.30;99.90
34434;DHT22;34290;48.562;13.384;2023-03-15T17:18:19;3.10;99.90
34434;DHT22;34290;48.562;13.384;2023-03-15T17:23:21;3.00;99.90
34434;DHT22;34290;48.562;13.384;2023-03-15T17:28:16;2.90;99.90
34434;DHT22;34290;48.562;13.384;2023-03-15T17:35:41;2.50;99.90
34434;DHT22;34290;48.562;13.384;2023-03-15T17:38:15;2.50;99.90
34434;DHT22;34290;48.562;13.384;2023-03-15T17:43:12;2.50;99.90
34434;DHT22;34290;48.562;13.384;2023-03-15T17:45:40;2.50;99.90
34434;DHT22;34290;48.562;13.384;2023-03-15T17:50:35;2.50;99.90
34434;DHT22;34290;48.562;13.384;2023-03-15T17:53:06;2.60;99.90
34434;DHT22;34290;48.562;13.384;2023-03-15T17:55:36;2.50;99.90
34434;DHT22;34290;48.562;13.384;2023-03-15T17:58:10;2.50;99.90
34434;DHT22;34290;48.562;13.384;2023-03-15T18:00:37;2.50;99.90
34434;DHT22;34290;48.562;13.384;2023-03-15T18:03:04;2.50;99.90
34434;DHT22;34290;48.562;13.384;2023-03-15T18:07:59;2.60;99.90
34434;DHT22;34290;48.562;13.384;2023-03-15T18:15:29;2.60;99.90
34434;DHT22;34290;48.562;13.384;2023-03-15T18:17:56;2.50;99.90
34434;DHT22;34290;48.562;13.384;2023-03-15T18:20:23;2.60;99.90
34434;DHT22;34290;48.562;13.384;2023-03-15T18:25:20;2.50;99.90
34434;DHT22;34290;48.562;13.384;2023-03-15T18:27:48;2.50;99.90
34434;DHT22;34290;48.562;13.384;2023-03-15T18:35:15;2.60;99.90
34434;DHT22;34290;48.562;13.384;2023-03-15T18:40:11;2.60;99.90
34434;DHT22;34290;48.562;13.384;2023-03-15T18:47:34;2.70;99.90
34434;DHT22;34290;48.562;13.384;2023-03-15T18:50:03;2.70;99.90
34434;DHT22;34290;48.562;13.384;2023-03-15T18:52:30;2.60;99.90
34434;DHT22;34290;48.562;13.384;2023-03-15T18:54:57;2.60;99.90
34434;DHT22;34290;48.562;13.384;2023-03-15T18:57:24;2.60;99.90
34434;DHT22;34290;48.562;13.384;2023-03-15T19:02:18;2.70;99.90
34434;DHT22;34290;48.562;13.384;2023-03-15T19:04:45;2.60;99.90
34434;DHT22;34290;48.562;13.384;2023-03-15T19:09:41;2.70;99.90
34434;DHT22;34290;48.562;13.384;2023-03-15T19:12:09;2.60;99.90
34434;DHT22;34290;48.562;13.384;2023-03-15T19:14:36;2.60;99.90
34434;DHT22;34290;48.562;13.384;2023-03-15T19:17:03;2.60;99.90
34434;DHT22;34290;48.562;13.384;2023-03-15T19:26:56;2.50;99.90
34434;DHT22;34290;48.562;13.384;2023-03-15T19:31:50;2.40;99.90
34434;DHT22;34290;48.562;13.384;2023-03-15T19:36:44;2.40;99.90
34434;DHT22;34290;48.562;13.384;2023-03-15T19:41:39;2.30;99.90
34434;DHT22;34290;48.562;13.384;2023-03-15T19:46:34;2.20;99.90
34434;DHT22;34290;48.562;13.384;2023-03-15T19:51:29;2.10;99.90
34434;DHT22;34290;48.562;13.384;2023-03-15T19:53:56;2.00;99.90
34434;DHT22;34290;48.562;13.384;2023-03-15T19:56:23;2.00;99.90
34434;DHT22;34290;48.562;13.384;2023-03-15T20:01:20;1.90;99.90
34434;DHT22;34290;48.562;13.384;2023-03-15T20:03:47;1.80;99.90
34434;DHT22;34290;48.562;13.384;2023-03-15T20:06:14;1.80;99.90
34434;DHT22;34290;48.562;13.384;2023-03-15T20:08:41;1.80;99.90
34434;DHT22;34290;48.562;13.384;2023-03-15T20:11:09;1.70;99.90
34434;DHT22;34290;48.562;13.384;2023-03-15T20:13:39;1.60;99.90
34434;DHT22;34290;48.562;13.384;2023-03-15T20:18:36;1.40;99.90
34434;DHT22;34290;48.562;13.384;2023-03-15T20:21:03;1.40;99.90
34434;DHT22;34290;48.562;13.384;2023-03-15T20:28:32;1.20;99.90
34434;DHT22;34290;48.562;13.384;2023-03-15T20:33:27;1.10;99.90
34434;DHT22;34290;48.562;13.384;2023-03-15T20:38:21;1.00;99.90
34434;DHT22;34290;48.562;13.384;2023-03-15T20:40:52;0.90;99.90